KHLB/HLB METAR and TAF weather

Enter ICAO airport designator
Station Type Date Time Source
KHLB METAR 2020/04/04 11:15 UTC NOAA

KHLB 041115Z AUTO 00000KT 10SM OVC120 09/07 A3002 RMK A01


Station Type Date Time Source
KHLB Decoded METAR 2020/04/04 11:15 UTC NOAA

Station name not available
Apr 04, 2020 - 07:15 AM EDT / 2020.04.04 1115 UTC
Wind: Calm:0
Visibility: 10 mile(s):0
Sky conditions: overcast
Temperature: 48 F (9 C)
Dew Point: 44 F (7 C)
Relative Humidity: 87%
Pressure (altimeter): 30.02 in. Hg (1016 hPa)
ob: KHLB 041115Z AUTO 00000KT 10SM OVC120 09/07 A3002 RMK A01
cycle: 11

Station Type Date Time Source
KHLB TAF UTC NOAA

Error!

Example: see airport list